createdAt,value
2023-01-09T00:00:45.549Z,0.80
2023-01-09T00:03:12.164Z,0.80
2023-01-09T00:05:38.636Z,0.70
2023-01-09T00:08:05.910Z,0.85
2023-01-09T00:10:32.490Z,0.70
2023-01-09T00:13:03.111Z,0.77
2023-01-09T00:15:29.795Z,0.52
2023-01-09T00:17:56.490Z,0.60
2023-01-09T00:20:23.213Z,0.50
2023-01-09T00:22:49.780Z,0.50
2023-01-09T00:25:16.401Z,0.57
2023-01-09T00:27:43.056Z,0.55
2023-01-09T00:30:10.613Z,0.50
2023-01-09T00:32:37.279Z,0.52
2023-01-09T00:35:04.020Z,0.50
2023-01-09T00:37:30.571Z,0.45
2023-01-09T00:39:57.263Z,0.60
2023-01-09T00:42:28.501Z,0.50
2023-01-09T00:44:59.037Z,0.45
2023-01-09T00:47:32.407Z,0.40
2023-01-09T00:50:10.106Z,0.50
2023-01-09T00:52:37.983Z,0.60
2023-01-09T00:55:05.933Z,0.60
2023-01-09T00:57:32.994Z,0.50
2023-01-09T01:00:00.162Z,0.70
2023-01-09T01:02:27.008Z,0.60
2023-01-09T01:05:12.797Z,0.80
2023-01-09T01:07:39.325Z,0.60
2023-01-09T01:10:08.489Z,0.60
2023-01-09T01:12:35.109Z,0.60
2023-01-09T01:15:02.031Z,0.60
2023-01-09T01:17:28.614Z,0.70
2023-01-09T01:19:55.311Z,0.77
2023-01-09T01:22:21.892Z,0.82
2023-01-09T01:24:48.488Z,0.70
2023-01-09T01:27:15.022Z,0.88
2023-01-09T01:29:41.566Z,0.70
2023-01-09T01:32:08.242Z,0.73
2023-01-09T01:34:34.755Z,0.70
2023-01-09T01:37:01.408Z,0.80
2023-01-09T01:39:28.151Z,1.10
2023-01-09T01:41:54.715Z,0.90
2023-01-09T01:44:58.389Z,0.88
2023-01-09T01:47:34.850Z,1.00
2023-01-09T01:50:08.047Z,0.70
2023-01-09T01:52:36.889Z,0.82
2023-01-09T01:55:06.953Z,0.80
2023-01-09T01:57:34.330Z,0.93
2023-01-09T02:00:09.995Z,1.00
2023-01-09T02:02:36.620Z,1.13
2023-01-09T02:05:05.199Z,0.80
2023-01-09T02:07:31.843Z,0.95
2023-01-09T02:09:58.820Z,1.00
2023-01-09T02:12:27.711Z,1.00
2023-01-09T02:15:07.411Z,0.90
2023-01-09T02:17:43.888Z,0.98
2023-01-09T02:20:32.147Z,0.90
2023-01-09T02:23:05.518Z,1.38
2023-01-09T02:25:57.067Z,1.10
2023-01-09T02:28:42.396Z,1.00
2023-01-09T02:31:21.047Z,0.98
2023-01-09T02:34:08.939Z,1.27
2023-01-09T02:36:54.198Z,1.48
2023-01-09T02:39:27.504Z,1.00
2023-01-09T02:42:02.109Z,1.02
2023-01-09T02:44:30.858Z,1.30
2023-01-09T02:47:08.285Z,1.05
2023-01-09T02:49:38.395Z,1.00
2023-01-09T02:52:07.840Z,1.17
2023-01-09T02:54:37.366Z,0.98
2023-01-09T02:57:37.214Z,1.17
2023-01-09T03:00:25.022Z,1.20
2023-01-09T03:02:58.989Z,1.00
2023-01-09T03:05:57.272Z,1.20
2023-01-09T03:08:31.367Z,1.10
2023-01-09T03:11:04.619Z,1.30
2023-01-09T03:13:36.537Z,1.20
2023-01-09T03:16:07.702Z,1.42
2023-01-09T03:18:37.020Z,1.55
2023-01-09T03:21:06.230Z,1.80
2023-01-09T03:23:51.509Z,2.00
2023-01-09T03:26:18.370Z,2.25
2023-01-09T03:28:45.548Z,2.47
2023-01-09T03:31:13.149Z,2.83
2023-01-09T03:33:40.233Z,2.03
2023-01-09T03:36:07.151Z,1.70
2023-01-09T03:38:34.273Z,2.35
2023-01-09T03:41:01.039Z,1.90
2023-01-09T03:43:28.122Z,2.17
2023-01-09T03:45:54.850Z,2.03
2023-01-09T03:48:21.759Z,1.88
2023-01-09T03:50:50.313Z,2.25
2023-01-09T03:53:17.304Z,1.60
2023-01-09T03:55:48.666Z,2.33
2023-01-09T03:58:16.035Z,1.98
2023-01-09T04:00:45.866Z,1.67
2023-01-09T04:03:12.991Z,1.88
2023-01-09T04:05:39.501Z,2.22
2023-01-09T04:08:06.139Z,1.80
2023-01-09T04:10:33.300Z,1.85
2023-01-09T04:12:59.892Z,2.20
2023-01-09T04:15:26.546Z,2.42
2023-01-09T04:17:53.190Z,2.40
2023-01-09T04:20:19.778Z,1.90
2023-01-09T04:22:46.364Z,1.92
2023-01-09T04:25:12.983Z,1.90
2023-01-09T04:27:39.497Z,1.80
2023-01-09T04:30:06.693Z,1.90
2023-01-09T04:32:33.212Z,1.73
2023-01-09T04:34:59.757Z,2.00
2023-01-09T04:37:26.353Z,1.80
2023-01-09T04:39:55.916Z,1.55
2023-01-09T04:42:23.068Z,1.60
2023-01-09T04:44:53.651Z,1.90
2023-01-09T04:47:21.289Z,1.58
2023-01-09T04:49:47.897Z,1.45
2023-01-09T04:52:14.543Z,1.50
2023-01-09T04:54:41.090Z,1.60
2023-01-09T04:57:07.710Z,1.73
2023-01-09T04:59:34.442Z,2.03
2023-01-09T05:02:01.136Z,1.38
2023-01-09T05:04:27.932Z,1.63
2023-01-09T05:06:54.499Z,1.70
2023-01-09T05:09:22.136Z,1.80
2023-01-09T05:11:49.050Z,2.95
2023-01-09T05:14:15.632Z,2.25
2023-01-09T05:16:42.161Z,1.92
2023-01-09T05:19:08.688Z,1.80
2023-01-09T05:21:35.376Z,1.88
2023-01-09T05:24:01.912Z,1.98
2023-01-09T05:26:28.551Z,1.65
2023-01-09T05:28:56.520Z,1.48
2023-01-09T05:31:24.582Z,1.30
2023-01-09T05:33:51.153Z,1.50
2023-01-09T05:36:17.905Z,1.60
2023-01-09T05:38:44.457Z,1.42
2023-01-09T05:41:11.277Z,1.27
2023-01-09T05:43:37.857Z,1.80
2023-01-09T05:46:04.496Z,1.63
2023-01-09T05:48:31.014Z,1.85
2023-01-09T05:50:57.752Z,1.70
2023-01-09T05:53:24.303Z,2.15
2023-01-09T05:55:50.843Z,1.60
2023-01-09T05:58:17.352Z,1.33
2023-01-09T06:00:43.954Z,1.55
2023-01-09T06:03:10.507Z,1.50
2023-01-09T06:05:37.093Z,1.83
2023-01-09T06:08:03.673Z,1.60
2023-01-09T06:10:30.514Z,1.98
2023-01-09T06:12:57.119Z,2.42
2023-01-09T06:15:23.645Z,2.45
2023-01-09T06:17:50.335Z,1.98
2023-01-09T06:20:17.200Z,1.77
2023-01-09T06:22:45.305Z,1.88
2023-01-09T06:25:13.026Z,1.65
2023-01-09T06:27:39.573Z,1.98
2023-01-09T06:30:06.915Z,1.70
2023-01-09T06:32:33.698Z,1.85
2023-01-09T06:35:00.205Z,2.20
2023-01-09T06:37:26.747Z,1.88
2023-01-09T06:39:54.229Z,1.75
2023-01-09T06:42:21.011Z,2.25
2023-01-09T06:44:47.673Z,2.00
2023-01-09T06:47:14.215Z,1.70
2023-01-09T06:49:40.879Z,2.05
2023-01-09T06:52:07.777Z,1.63
2023-01-09T06:54:35.393Z,2.08
2023-01-09T06:57:01.966Z,1.98
2023-01-09T06:59:28.463Z,1.90
2023-01-09T07:01:55.150Z,1.75
2023-01-09T07:04:24.288Z,2.17
2023-01-09T07:06:50.850Z,2.03
2023-01-09T07:09:17.444Z,1.50
2023-01-09T07:11:44.059Z,1.90
2023-01-09T07:14:10.583Z,1.98
2023-01-09T07:16:37.120Z,1.92
2023-01-09T07:19:03.686Z,2.20
2023-01-09T07:21:32.660Z,2.30
2023-01-09T07:23:59.662Z,2.10
2023-01-09T07:26:26.373Z,1.80
2023-01-09T07:28:53.313Z,2.13
2023-01-09T07:31:19.923Z,2.13
2023-01-09T07:33:46.528Z,2.25
2023-01-09T07:36:13.083Z,1.90
2023-01-09T07:38:39.713Z,2.30
2023-01-09T07:41:06.381Z,2.58
2023-01-09T07:43:33.343Z,2.25
2023-01-09T07:45:59.903Z,2.40
2023-01-09T07:48:26.586Z,1.88
2023-01-09T07:50:53.183Z,2.53
2023-01-09T07:53:19.880Z,1.80
2023-01-09T07:55:46.519Z,1.90
2023-01-09T07:58:16.290Z,2.35
2023-01-09T08:00:42.891Z,1.88
2023-01-09T08:03:09.478Z,2.05
2023-01-09T08:05:40.862Z,2.00
2023-01-09T08:08:07.522Z,2.60
2023-01-09T08:10:34.067Z,2.83
2023-01-09T08:13:00.715Z,2.28
2023-01-09T08:15:29.022Z,2.40
2023-01-09T08:17:55.497Z,2.13
2023-01-09T08:20:22.057Z,2.67
2023-01-09T08:22:49.707Z,2.10
2023-01-09T08:25:17.967Z,2.55
2023-01-09T08:27:44.856Z,2.25
2023-01-09T08:30:12.326Z,1.77
2023-01-09T08:32:39.241Z,2.10
2023-01-09T08:35:10.178Z,2.42
2023-01-09T08:37:36.733Z,2.53
2023-01-09T08:40:03.443Z,1.95
2023-01-09T08:42:49.867Z,2.10
2023-01-09T08:45:35.135Z,2.40
2023-01-09T08:48:01.758Z,2.50
2023-01-09T08:50:28.355Z,2.22
2023-01-09T08:52:54.900Z,2.72
2023-01-09T08:55:21.595Z,2.33
2023-01-09T08:57:51.675Z,2.22
2023-01-09T09:00:20.257Z,2.50
2023-01-09T09:02:54.705Z,2.40
2023-01-09T09:05:22.532Z,2.58
2023-01-09T09:07:56.080Z,2.95
2023-01-09T09:10:24.436Z,2.45
2023-01-09T09:12:52.930Z,2.67
2023-01-09T09:15:25.409Z,2.28
2023-01-09T09:17:54.562Z,2.53
2023-01-09T09:20:28.454Z,2.72
2023-01-09T09:22:55.436Z,2.30
2023-01-09T09:25:22.075Z,2.58
2023-01-09T09:27:48.887Z,2.60
2023-01-09T09:30:17.696Z,2.67
2023-01-09T09:32:44.401Z,3.00
2023-01-09T09:35:11.347Z,2.40
2023-01-09T09:37:39.739Z,3.13
2023-01-09T09:40:18.002Z,3.13
2023-01-09T09:43:25.864Z,2.95
2023-01-09T09:46:36.425Z,2.90
2023-01-09T09:49:13.863Z,2.80
2023-01-09T09:52:14.267Z,2.90
2023-01-09T09:54:44.872Z,2.88
2023-01-09T09:57:17.103Z,2.30
2023-01-09T09:59:44.725Z,3.17
2023-01-09T10:02:39.149Z,2.92
2023-01-09T10:05:15.355Z,3.25
2023-01-09T10:07:47.600Z,2.90
2023-01-09T10:10:29.855Z,2.75
2023-01-09T10:12:59.166Z,3.20
2023-01-09T10:15:45.528Z,3.03
2023-01-09T10:18:17.384Z,3.20
2023-01-09T10:20:57.885Z,3.55
2023-01-09T10:23:53.657Z,4.28
2023-01-09T10:26:32.588Z,3.63
2023-01-09T10:29:18.014Z,3.65
2023-01-09T10:32:09.272Z,3.70
2023-01-09T10:34:47.335Z,3.88
2023-01-09T10:37:29.233Z,4.13
2023-01-09T10:40:05.557Z,4.10
2023-01-09T10:42:47.705Z,4.22
2023-01-09T10:45:24.151Z,3.97
2023-01-09T10:47:50.831Z,4.55
2023-01-09T10:50:30.915Z,4.32
2023-01-09T10:52:58.198Z,5.10
2023-01-09T10:55:39.908Z,4.35
2023-01-09T10:58:13.164Z,4.30
2023-01-09T11:00:40.654Z,4.20
2023-01-09T11:03:15.926Z,4.32
2023-01-09T11:05:43.323Z,4.38
2023-01-09T11:08:11.443Z,4.13
2023-01-09T11:10:44.098Z,4.05
2023-01-09T11:13:31.812Z,4.20
2023-01-09T11:16:06.712Z,3.67
2023-01-09T11:18:55.673Z,3.75
2023-01-09T11:21:28.193Z,4.32
2023-01-09T11:24:21.329Z,3.65
2023-01-09T11:26:50.237Z,3.63
2023-01-09T11:29:24.243Z,3.58
2023-01-09T11:31:54.241Z,4.55
2023-01-09T11:34:23.994Z,4.85
2023-01-09T11:36:53.841Z,4.00
2023-01-09T11:39:30.670Z,4.22
2023-01-09T11:42:00.093Z,4.30
2023-01-09T11:44:28.548Z,4.90
2023-01-09T11:46:55.186Z,4.70
2023-01-09T11:49:24.736Z,4.82
2023-01-09T11:52:20.934Z,4.63
2023-01-09T11:57:19.426Z,5.10
2023-01-09T11:59:46.018Z,5.28
2023-01-09T12:02:24.626Z,5.38
2023-01-09T12:05:02.934Z,5.20
2023-01-09T12:07:54.788Z,5.75
2023-01-09T12:10:33.452Z,5.75
2023-01-09T12:13:22.639Z,5.55
2023-01-09T12:16:04.438Z,5.45
2023-01-09T12:18:50.997Z,5.93
2023-01-09T12:21:41.443Z,7.00
2023-01-09T12:24:32.308Z,9.90
2023-01-09T12:27:29.768Z,6.63
2023-01-09T12:30:28.720Z,6.82
2023-01-09T12:33:04.227Z,8.32
2023-01-09T12:35:45.978Z,7.78
2023-01-09T12:38:37.845Z,7.25
2023-01-09T12:41:36.388Z,7.00
2023-01-09T12:44:38.285Z,7.03
2023-01-09T12:47:04.790Z,7.28
2023-01-09T12:49:37.404Z,7.25
2023-01-09T12:52:12.093Z,6.97
2023-01-09T12:54:46.556Z,6.85
2023-01-09T12:57:29.471Z,5.93
2023-01-09T13:00:06.077Z,5.63
2023-01-09T13:03:12.081Z,5.72
2023-01-09T13:06:01.327Z,5.15
2023-01-09T13:08:36.640Z,5.47
2023-01-09T13:11:19.997Z,5.93
2023-01-09T13:14:02.395Z,5.47
2023-01-09T13:16:33.813Z,5.43
2023-01-09T13:19:14.267Z,6.13
2023-01-09T13:21:41.661Z,5.75
2023-01-09T13:24:18.238Z,5.55
2023-01-09T13:27:02.268Z,5.70
2023-01-09T13:29:34.425Z,5.53
2023-01-09T13:32:08.823Z,5.53
2023-01-09T13:34:38.507Z,6.38
2023-01-09T13:37:05.722Z,5.75
2023-01-09T13:39:35.461Z,6.22
2023-01-09T13:42:25.902Z,6.63
2023-01-09T13:44:55.728Z,6.53
2023-01-09T13:47:24.855Z,6.53
2023-01-09T13:49:51.558Z,6.75
2023-01-09T13:52:38.130Z,6.35
2023-01-09T13:55:16.717Z,6.50
2023-01-09T13:58:01.498Z,6.40
2023-01-09T14:00:27.979Z,7.40
2023-01-09T14:03:03.782Z,6.30
2023-01-09T14:05:50.245Z,6.47
2023-01-09T14:08:22.566Z,6.50
2023-01-09T14:10:58.706Z,5.78
2023-01-09T14:13:33.353Z,6.13
2023-01-09T14:16:18.318Z,5.82
2023-01-09T14:18:51.278Z,5.03
2023-01-09T14:21:19.007Z,5.00
2023-01-09T14:23:54.340Z,4.60
2023-01-09T14:26:25.631Z,4.18
2023-01-09T14:28:52.691Z,4.70
2023-01-09T14:31:31.350Z,4.78
2023-01-09T14:34:35.538Z,4.70
2023-01-09T14:37:02.892Z,4.65
2023-01-09T14:39:31.951Z,5.30
2023-01-09T14:42:08.239Z,5.50
2023-01-09T14:45:02.579Z,5.40
2023-01-09T14:47:37.538Z,5.40
2023-01-09T14:50:14.121Z,4.72
2023-01-09T14:52:49.831Z,5.78
2023-01-09T14:55:31.261Z,4.70
2023-01-09T14:58:10.911Z,5.88
2023-01-09T15:00:46.054Z,5.00
2023-01-09T15:03:12.832Z,4.97
2023-01-09T15:05:39.435Z,4.63
2023-01-09T15:08:06.181Z,5.68
2023-01-09T15:10:37.210Z,6.03
2023-01-09T15:13:11.208Z,5.78
2023-01-09T15:15:37.849Z,6.18
2023-01-09T15:18:08.334Z,5.65
2023-01-09T15:20:35.267Z,5.45
2023-01-09T15:23:04.166Z,5.53
2023-01-09T15:25:39.898Z,6.10
2023-01-09T15:28:25.072Z,5.97
2023-01-09T15:31:00.380Z,6.43
2023-01-09T15:33:27.077Z,7.22
2023-01-09T15:36:00.037Z,7.28
2023-01-09T15:38:28.623Z,6.63
2023-01-09T15:40:59.386Z,6.55
2023-01-09T15:43:29.908Z,6.07
2023-01-09T15:45:57.623Z,7.72
2023-01-09T15:48:34.028Z,5.57
2023-01-09T15:51:18.294Z,5.10
2023-01-09T15:53:51.844Z,4.75
2023-01-09T15:56:24.078Z,4.20
2023-01-09T15:58:52.696Z,3.78
2023-01-09T16:01:27.842Z,2.92
2023-01-09T16:03:57.668Z,3.10
2023-01-09T16:06:26.127Z,2.35
2023-01-09T16:08:56.133Z,2.78
2023-01-09T16:11:27.315Z,2.45
2023-01-09T16:13:56.715Z,2.97
2023-01-09T16:16:28.966Z,2.67
2023-01-09T16:18:57.029Z,2.83
2023-01-09T16:21:32.879Z,2.45
2023-01-09T16:24:03.013Z,2.58
2023-01-09T16:26:31.204Z,2.28
2023-01-09T16:29:27.742Z,2.25
2023-01-09T16:32:02.252Z,2.03
2023-01-09T16:34:29.700Z,3.20
2023-01-09T16:36:56.402Z,2.05
2023-01-09T16:39:25.731Z,2.13
2023-01-09T16:42:11.419Z,1.55
2023-01-09T16:44:38.520Z,1.60
2023-01-09T16:47:05.634Z,2.13
2023-01-09T16:49:33.548Z,1.92
2023-01-09T16:52:03.118Z,1.95
2023-01-09T16:54:30.784Z,2.05
2023-01-09T16:56:57.561Z,1.60
2023-01-09T16:59:27.383Z,1.60
2023-01-09T17:01:54.832Z,2.00
2023-01-09T17:04:23.692Z,1.85
2023-01-09T17:06:50.762Z,1.65
2023-01-09T17:09:20.442Z,1.90
2023-01-09T17:11:47.027Z,2.03
2023-01-09T17:14:14.766Z,2.25
2023-01-09T17:16:50.813Z,1.75
2023-01-09T17:19:20.447Z,2.10
2023-01-09T17:21:50.400Z,2.08
2023-01-09T17:24:35.581Z,2.80
2023-01-09T17:27:21.493Z,2.85
2023-01-09T17:32:18.492Z,2.50
2023-01-09T17:34:45.237Z,3.42
2023-01-09T17:37:14.741Z,2.50
2023-01-09T17:39:41.617Z,2.53
2023-01-09T17:42:08.271Z,2.65
2023-01-09T17:44:34.805Z,2.50
2023-01-09T17:47:01.479Z,3.10
2023-01-09T17:49:28.093Z,3.20
2023-01-09T17:51:54.675Z,3.38
2023-01-09T17:54:21.491Z,3.47
2023-01-09T17:56:50.912Z,3.40
2023-01-09T17:59:18.236Z,3.08
2023-01-09T18:01:45.380Z,3.50
2023-01-09T18:04:12.484Z,3.35
2023-01-09T18:06:39.121Z,3.40
2023-01-09T18:09:06.481Z,3.60
2023-01-09T18:11:37.552Z,3.63
2023-01-09T18:14:04.050Z,3.20
2023-01-09T18:16:30.702Z,3.35
2023-01-09T18:18:58.682Z,3.97
2023-01-09T18:21:27.185Z,3.38
2023-01-09T18:23:54.602Z,3.53
2023-01-09T18:26:22.439Z,3.03
2023-01-09T18:28:57.574Z,3.53
2023-01-09T18:31:28.809Z,2.88
2023-01-09T18:33:57.638Z,2.90
2023-01-09T18:36:29.992Z,2.80
2023-01-09T18:38:58.973Z,2.90
2023-01-09T18:41:25.723Z,2.83
2023-01-09T18:43:54.631Z,2.65
2023-01-09T18:46:24.548Z,2.30
2023-01-09T18:48:55.252Z,2.60
2023-01-09T18:51:22.673Z,3.00
2023-01-09T18:53:50.383Z,2.85
2023-01-09T18:56:19.131Z,2.90
2023-01-09T18:58:57.627Z,2.72
2023-01-09T19:01:25.419Z,2.90
2023-01-09T19:03:52.126Z,3.05
2023-01-09T19:06:19.009Z,3.08
2023-01-09T19:08:45.493Z,3.38
2023-01-09T19:11:12.091Z,3.53
2023-01-09T19:13:38.712Z,3.40
2023-01-09T19:16:08.232Z,3.30
2023-01-09T19:18:37.852Z,3.17
2023-01-09T19:21:11.586Z,3.92
2023-01-09T19:23:38.198Z,2.95
2023-01-09T19:26:08.396Z,4.10
2023-01-09T19:28:36.365Z,3.17
2023-01-09T19:31:03.038Z,3.97
2023-01-09T19:33:29.703Z,2.83
2023-01-09T19:35:56.248Z,3.70
2023-01-09T19:38:23.255Z,4.05
2023-01-09T19:40:49.946Z,3.40
2023-01-09T19:43:25.983Z,3.50
2023-01-09T19:45:54.559Z,3.92
2023-01-09T19:48:23.064Z,3.58
2023-01-09T19:50:50.005Z,4.30
2023-01-09T19:53:16.574Z,5.70
2023-01-09T19:55:43.053Z,5.72
2023-01-09T19:58:09.605Z,6.40
2023-01-09T20:00:36.684Z,6.00
2023-01-09T20:03:03.939Z,5.65
2023-01-09T20:05:30.446Z,5.65
2023-01-09T20:07:57.681Z,4.70
2023-01-09T20:10:24.406Z,4.78
2023-01-09T20:12:51.477Z,4.80
2023-01-09T20:15:17.939Z,4.03
2023-01-09T20:17:44.469Z,4.07
2023-01-09T20:20:11.274Z,4.22
2023-01-09T20:22:37.860Z,4.20
2023-01-09T20:25:04.715Z,4.68
2023-01-09T20:27:31.412Z,5.25
2023-01-09T20:29:57.933Z,4.90
2023-01-09T20:32:24.500Z,4.82
2023-01-09T20:34:51.000Z,4.40
2023-01-09T20:37:17.522Z,3.97
2023-01-09T20:39:44.101Z,3.78
2023-01-09T20:42:11.852Z,5.20
2023-01-09T20:44:38.401Z,3.50
2023-01-09T20:47:04.896Z,3.63
2023-01-09T20:49:31.432Z,4.05
2023-01-09T20:51:58.267Z,4.85
2023-01-09T20:54:24.981Z,3.92
2023-01-09T20:56:51.762Z,4.22
2023-01-09T20:59:22.929Z,4.70
2023-01-09T21:01:50.632Z,5.20
2023-01-09T21:04:18.121Z,5.22
2023-01-09T21:06:44.732Z,4.10
2023-01-09T21:09:11.265Z,3.80
2023-01-09T21:11:38.026Z,4.20
2023-01-09T21:14:04.686Z,4.10
2023-01-09T21:16:31.460Z,3.88
2023-01-09T21:18:58.125Z,3.40
2023-01-09T21:21:27.327Z,3.63
2023-01-09T21:23:56.844Z,3.85
2023-01-09T21:26:27.506Z,4.00
2023-01-09T21:28:55.483Z,3.88
2023-01-09T21:31:25.749Z,3.97
2023-01-09T21:33:54.424Z,3.78
2023-01-09T21:36:21.743Z,3.95
2023-01-09T21:38:48.542Z,3.90
2023-01-09T21:41:37.573Z,3.70
2023-01-09T21:44:22.698Z,4.25
2023-01-09T21:46:52.181Z,4.75
2023-01-09T21:49:20.331Z,5.13
2023-01-09T21:51:46.983Z,4.15
2023-01-09T21:54:13.554Z,4.78
2023-01-09T21:56:40.138Z,4.53
2023-01-09T21:59:06.846Z,5.22
2023-01-09T22:01:33.499Z,4.93
2023-01-09T22:04:00.224Z,4.88
2023-01-09T22:06:28.266Z,4.35
2023-01-09T22:08:55.808Z,4.53
2023-01-09T22:11:22.527Z,5.13
2023-01-09T22:13:49.927Z,5.68
2023-01-09T22:16:17.212Z,4.93
2023-01-09T22:18:43.781Z,5.00
2023-01-09T22:21:10.345Z,4.88
2023-01-09T22:23:36.843Z,4.85
2023-01-09T22:26:11.096Z,5.20
2023-01-09T22:28:45.364Z,5.20
2023-01-09T22:31:16.198Z,5.18
2023-01-09T22:33:42.784Z,5.13
2023-01-09T22:36:11.657Z,5.43
2023-01-09T22:38:38.366Z,6.25
2023-01-09T22:41:05.655Z,5.10
2023-01-09T22:43:32.259Z,5.25
2023-01-09T22:46:03.606Z,5.20
2023-01-09T22:48:36.761Z,4.90
2023-01-09T22:51:06.903Z,4.63
2023-01-09T22:53:34.227Z,4.47
2023-01-09T22:56:04.280Z,4.43
2023-01-09T22:58:31.833Z,4.50
2023-01-09T23:00:58.428Z,5.28
2023-01-09T23:03:25.721Z,3.83
2023-01-09T23:06:12.489Z,3.90
2023-01-09T23:08:39.885Z,3.65
2023-01-09T23:11:10.267Z,4.07
2023-01-09T23:13:37.099Z,4.68
2023-01-09T23:16:04.428Z,4.15
2023-01-09T23:18:31.315Z,3.95
2023-01-09T23:21:01.035Z,4.20
2023-01-09T23:23:29.067Z,4.65
2023-01-09T23:26:00.240Z,4.43
2023-01-09T23:28:28.008Z,4.88
2023-01-09T23:30:54.587Z,3.78
2023-01-09T23:33:21.357Z,4.68
2023-01-09T23:35:48.418Z,4.20
2023-01-09T23:38:15.483Z,5.30
2023-01-09T23:40:42.554Z,4.68
2023-01-09T23:43:11.313Z,4.30
2023-01-09T23:45:45.908Z,4.78
2023-01-09T23:48:14.729Z,5.80
2023-01-09T23:50:49.087Z,4.78
2023-01-09T23:53:16.131Z,4.10
2023-01-09T23:55:42.610Z,4.68
2023-01-09T23:58:09.192Z,4.13
